Terminal Aerodrome Forecast
Issued by NWS Charleston, WV

Current Version | Previous Version | Text Only | Print | Product List | Glossary Off
Versions: 1 2 3 4 5 6 7 8 9 10 11 12 13 14 15 16 17 18 19 20 21 22 23 24 25 26 27 28 29 30 31 32 33

000
FTUS41 KRLX 292300 RRA
TAFEKN
TAF
KEKN 292345Z 3000/3024 22007KT P6SM SCT025 OVC040
     FM300100 26007KT P6SM -SHRASN OVC025
     FM300400 28008KT 5SM -SHSN BR OVC025
     FM300600 28007KT 3SM -SHSN BR OVC015
     FM300700 28007KT 3SM -SHSN BR OVC010
     FM301700 30009G20KT 1SM -SHSN BR SCT001 BKN025
     FM302200 30009G18KT P6SM -SHSN BKN025=

USA.gov is the U.S. government's official web portal to all federal, state and local government web resources and services.